sensor_id;sensor_type;location;lat;lon;timestamp;temperature;humidity
57664;DHT22;43493;53.098;6.064;2024-01-16T00:01:15;1.10;99.90
57664;DHT22;43493;53.098;6.064;2024-01-16T00:03:41;1.10;99.90
57664;DHT22;43493;53.098;6.064;2024-01-16T00:06:07;1.20;99.90
57664;DHT22;43493;53.098;6.064;2024-01-16T00:08:33;1.10;99.90
57664;DHT22;43493;53.098;6.064;2024-01-16T00:11:01;1.10;99.90
57664;DHT22;43493;53.098;6.064;2024-01-16T00:13:26;1.20;99.90
57664;DHT22;43493;53.098;6.064;2024-01-16T00:15:52;1.20;99.90
57664;DHT22;43493;53.098;6.064;2024-01-16T00:18:18;1.20;99.90
57664;DHT22;43493;53.098;6.064;2024-01-16T00:20:44;1.20;99.90
57664;DHT22;43493;53.098;6.064;2024-01-16T00:23:10;1.20;99.90
57664;DHT22;43493;53.098;6.064;2024-01-16T00:25:35;1.20;99.90
57664;DHT22;43493;53.098;6.064;2024-01-16T00:28:02;1.30;99.90
57664;DHT22;43493;53.098;6.064;2024-01-16T00:30:29;1.20;99.90
57664;DHT22;43493;53.098;6.064;2024-01-16T00:32:55;1.30;99.90
57664;DHT22;43493;53.098;6.064;2024-01-16T00:35:20;1.30;99.90
57664;DHT22;43493;53.098;6.064;2024-01-16T00:37:46;1.30;99.90
57664;DHT22;43493;53.098;6.064;2024-01-16T00:40:12;1.30;99.90
57664;DHT22;43493;53.098;6.064;2024-01-16T00:42:38;1.30;99.90
57664;DHT22;43493;53.098;6.064;2024-01-16T00:45:04;1.30;99.90
57664;DHT22;43493;53.098;6.064;2024-01-16T00:47:30;1.30;99.90
57664;DHT22;43493;53.098;6.064;2024-01-16T00:49:55;1.30;99.90
57664;DHT22;43493;53.098;6.064;2024-01-16T00:52:21;1.40;99.90
57664;DHT22;43493;53.098;6.064;2024-01-16T00:54:47;1.40;99.90
57664;DHT22;43493;53.098;6.064;2024-01-16T00:57:13;1.30;99.90
57664;DHT22;43493;53.098;6.064;2024-01-16T00:59:40;1.20;99.90
57664;DHT22;43493;53.098;6.064;2024-01-16T01:02:06;1.20;99.90
57664;DHT22;43493;53.098;6.064;2024-01-16T01:04:35;1.20;99.90
57664;DHT22;43493;53.098;6.064;2024-01-16T01:07:01;1.10;99.90
57664;DHT22;43493;53.098;6.064;2024-01-16T01:09:26;1.10;99.90
57664;DHT22;43493;53.098;6.064;2024-01-16T01:11:52;1.10;99.90
57664;DHT22;43493;53.098;6.064;2024-01-16T01:14:18;1.00;99.90
57664;DHT22;43493;53.098;6.064;2024-01-16T01:16:43;0.90;99.90
57664;DHT22;43493;53.098;6.064;2024-01-16T01:19:09;0.90;99.90
57664;DHT22;43493;53.098;6.064;2024-01-16T01:21:35;0.90;99.90
57664;DHT22;43493;53.098;6.064;2024-01-16T01:24:01;0.90;99.90
57664;DHT22;43493;53.098;6.064;2024-01-16T01:26:27;0.90;99.90
57664;DHT22;43493;53.098;6.064;2024-01-16T01:28:52;0.90;99.90
57664;DHT22;43493;53.098;6.064;2024-01-16T01:31:18;1.00;99.90
57664;DHT22;43493;53.098;6.064;2024-01-16T01:33:44;0.90;99.90
57664;DHT22;43493;53.098;6.064;2024-01-16T01:36:10;1.00;99.90
57664;DHT22;43493;53.098;6.064;2024-01-16T01:38:35;1.10;99.90
57664;DHT22;43493;53.098;6.064;2024-01-16T01:41:01;1.10;99.90
57664;DHT22;43493;53.098;6.064;2024-01-16T01:43:27;1.20;99.90
57664;DHT22;43493;53.098;6.064;2024-01-16T01:46:17;1.30;99.90
57664;DHT22;43493;53.098;6.064;2024-01-16T01:48:44;1.20;99.90
57664;DHT22;43493;53.098;6.064;2024-01-16T01:51:12;1.20;99.90
57664;DHT22;43493;53.098;6.064;2024-01-16T01:53:39;1.20;99.90
57664;DHT22;43493;53.098;6.064;2024-01-16T01:56:08;1.20;99.90
57664;DHT22;43493;53.098;6.064;2024-01-16T01:58:36;1.20;99.90
57664;DHT22;43493;53.098;6.064;2024-01-16T02:01:04;1.20;99.90
57664;DHT22;43493;53.098;6.064;2024-01-16T02:03:40;1.20;99.90
57664;DHT22;43493;53.098;6.064;2024-01-16T02:06:07;1.30;99.90
57664;DHT22;43493;53.098;6.064;2024-01-16T02:08:33;1.20;99.90
57664;DHT22;43493;53.098;6.064;2024-01-16T02:10:59;1.20;99.90
57664;DHT22;43493;53.098;6.064;2024-01-16T02:13:24;1.20;99.90
57664;DHT22;43493;53.098;6.064;2024-01-16T02:15:50;1.20;99.90
57664;DHT22;43493;53.098;6.064;2024-01-16T02:18:17;1.20;99.90
57664;DHT22;43493;53.098;6.064;2024-01-16T02:20:43;1.10;99.90
57664;DHT22;43493;53.098;6.064;2024-01-16T02:23:10;1.10;99.90
57664;DHT22;43493;53.098;6.064;2024-01-16T02:25:38;0.90;99.90
57664;DHT22;43493;53.098;6.064;2024-01-16T02:28:04;1.00;99.90
57664;DHT22;43493;53.098;6.064;2024-01-16T02:30:30;1.00;99.90
57664;DHT22;43493;53.098;6.064;2024-01-16T02:32:56;1.00;99.90
57664;DHT22;43493;53.098;6.064;2024-01-16T02:35:22;0.90;99.90
57664;DHT22;43493;53.098;6.064;2024-01-16T02:37:48;0.90;99.90
57664;DHT22;43493;53.098;6.064;2024-01-16T02:40:13;1.00;99.90
57664;DHT22;43493;53.098;6.064;2024-01-16T02:42:39;0.90;99.90
57664;DHT22;43493;53.098;6.064;2024-01-16T02:45:05;0.90;99.90
57664;DHT22;43493;53.098;6.064;2024-01-16T02:47:32;0.90;99.90
57664;DHT22;43493;53.098;6.064;2024-01-16T02:49:59;0.90;99.90
57664;DHT22;43493;53.098;6.064;2024-01-16T02:52:25;0.90;99.90
57664;DHT22;43493;53.098;6.064;2024-01-16T02:54:51;0.90;99.90
57664;DHT22;43493;53.098;6.064;2024-01-16T02:57:17;0.80;99.90
57664;DHT22;43493;53.098;6.064;2024-01-16T02:59:46;0.80;99.90
57664;DHT22;43493;53.098;6.064;2024-01-16T03:02:12;0.80;99.90
57664;DHT22;43493;53.098;6.064;2024-01-16T03:04:39;0.80;99.90
57664;DHT22;43493;53.098;6.064;2024-01-16T03:07:05;0.80;99.90
57664;DHT22;43493;53.098;6.064;2024-01-16T03:09:31;0.80;99.90
57664;DHT22;43493;53.098;6.064;2024-01-16T03:11:57;0.70;99.90
57664;DHT22;43493;53.098;6.064;2024-01-16T03:14:23;0.70;99.90
57664;DHT22;43493;53.098;6.064;2024-01-16T03:16:49;0.70;99.90
57664;DHT22;43493;53.098;6.064;2024-01-16T03:19:15;0.70;99.90
57664;DHT22;43493;53.098;6.064;2024-01-16T03:21:41;0.70;99.90
57664;DHT22;43493;53.098;6.064;2024-01-16T03:24:07;0.70;99.90
57664;DHT22;43493;53.098;6.064;2024-01-16T03:26:33;0.70;99.90
57664;DHT22;43493;53.098;6.064;2024-01-16T03:28:59;0.80;99.90
57664;DHT22;43493;53.098;6.064;2024-01-16T03:31:25;0.70;99.90
57664;DHT22;43493;53.098;6.064;2024-01-16T03:33:50;0.80;99.90
57664;DHT22;43493;53.098;6.064;2024-01-16T03:36:16;0.70;99.90
57664;DHT22;43493;53.098;6.064;2024-01-16T03:38:43;0.70;99.90
57664;DHT22;43493;53.098;6.064;2024-01-16T03:41:10;0.70;99.90
57664;DHT22;43493;53.098;6.064;2024-01-16T03:43:36;0.70;99.90
57664;DHT22;43493;53.098;6.064;2024-01-16T03:46:03;0.70;99.90
57664;DHT22;43493;53.098;6.064;2024-01-16T03:48:29;0.70;99.90
57664;DHT22;43493;53.098;6.064;2024-01-16T03:50:55;0.80;99.90
57664;DHT22;43493;53.098;6.064;2024-01-16T03:53:22;0.80;99.90
57664;DHT22;43493;53.098;6.064;2024-01-16T03:55:48;0.80;99.90
57664;DHT22;43493;53.098;6.064;2024-01-16T03:58:15;0.80;99.90
57664;DHT22;43493;53.098;6.064;2024-01-16T04:00:41;0.80;99.90
57664;DHT22;43493;53.098;6.064;2024-01-16T04:03:07;0.80;99.90
57664;DHT22;43493;53.098;6.064;2024-01-16T04:05:33;0.80;99.90
57664;DHT22;43493;53.098;6.064;2024-01-16T04:07:59;0.80;99.90
57664;DHT22;43493;53.098;6.064;2024-01-16T04:10:25;0.80;99.90
57664;DHT22;43493;53.098;6.064;2024-01-16T04:12:51;0.80;99.90
57664;DHT22;43493;53.098;6.064;2024-01-16T04:15:16;0.80;99.90
57664;DHT22;43493;53.098;6.064;2024-01-16T04:17:42;0.70;99.90
57664;DHT22;43493;53.098;6.064;2024-01-16T04:20:08;0.70;99.90
57664;DHT22;43493;53.098;6.064;2024-01-16T04:22:35;0.70;99.90
57664;DHT22;43493;53.098;6.064;2024-01-16T04:25:01;0.70;99.90
57664;DHT22;43493;53.098;6.064;2024-01-16T04:27:26;0.70;99.90
57664;DHT22;43493;53.098;6.064;2024-01-16T04:29:52;0.70;99.90
57664;DHT22;43493;53.098;6.064;2024-01-16T04:32:18;0.70;99.90
57664;DHT22;43493;53.098;6.064;2024-01-16T04:34:44;0.80;99.90
57664;DHT22;43493;53.098;6.064;2024-01-16T04:37:10;0.70;99.90
57664;DHT22;43493;53.098;6.064;2024-01-16T04:39:36;0.70;99.90
57664;DHT22;43493;53.098;6.064;2024-01-16T04:42:02;0.70;99.90
57664;DHT22;43493;53.098;6.064;2024-01-16T04:44:28;0.70;99.90
57664;DHT22;43493;53.098;6.064;2024-01-16T04:46:53;0.80;99.90
57664;DHT22;43493;53.098;6.064;2024-01-16T04:49:19;0.70;99.90
57664;DHT22;43493;53.098;6.064;2024-01-16T04:51:45;0.70;99.90
57664;DHT22;43493;53.098;6.064;2024-01-16T04:54:11;0.70;99.90
57664;DHT22;43493;53.098;6.064;2024-01-16T04:56:37;0.70;99.90
57664;DHT22;43493;53.098;6.064;2024-01-16T04:59:03;0.70;99.90
57664;DHT22;43493;53.098;6.064;2024-01-16T05:01:29;0.70;99.90
57664;DHT22;43493;53.098;6.064;2024-01-16T05:03:54;0.70;99.90
57664;DHT22;43493;53.098;6.064;2024-01-16T05:06:20;0.70;99.90
57664;DHT22;43493;53.098;6.064;2024-01-16T05:08:47;0.80;99.90
57664;DHT22;43493;53.098;6.064;2024-01-16T05:11:12;0.60;99.90
57664;DHT22;43493;53.098;6.064;2024-01-16T05:13:38;0.70;99.90
57664;DHT22;43493;53.098;6.064;2024-01-16T05:16:04;0.70;99.90
57664;DHT22;43493;53.098;6.064;2024-01-16T05:18:30;0.70;99.90
57664;DHT22;43493;53.098;6.064;2024-01-16T05:20:58;0.80;99.90
57664;DHT22;43493;53.098;6.064;2024-01-16T05:23:24;0.70;99.90
57664;DHT22;43493;53.098;6.064;2024-01-16T05:25:49;0.80;99.90
57664;DHT22;43493;53.098;6.064;2024-01-16T05:28:15;0.80;99.90
57664;DHT22;43493;53.098;6.064;2024-01-16T05:30:41;0.80;99.90
57664;DHT22;43493;53.098;6.064;2024-01-16T05:33:08;0.80;99.90
57664;DHT22;43493;53.098;6.064;2024-01-16T05:35:34;0.80;99.90
57664;DHT22;43493;53.098;6.064;2024-01-16T05:37:59;0.80;99.90
57664;DHT22;43493;53.098;6.064;2024-01-16T05:40:26;0.80;99.90
57664;DHT22;43493;53.098;6.064;2024-01-16T05:42:51;0.80;99.90
57664;DHT22;43493;53.098;6.064;2024-01-16T05:45:17;0.80;99.90
57664;DHT22;43493;53.098;6.064;2024-01-16T05:47:43;0.80;99.90
57664;DHT22;43493;53.098;6.064;2024-01-16T05:50:09;0.80;99.90
57664;DHT22;43493;53.098;6.064;2024-01-16T05:52:35;0.80;99.90
57664;DHT22;43493;53.098;6.064;2024-01-16T05:55:02;0.80;99.90
57664;DHT22;43493;53.098;6.064;2024-01-16T05:57:29;0.80;99.90
57664;DHT22;43493;53.098;6.064;2024-01-16T05:59:57;0.80;99.90
57664;DHT22;43493;53.098;6.064;2024-01-16T06:02:23;0.80;99.90
57664;DHT22;43493;53.098;6.064;2024-01-16T06:04:48;0.80;99.90
57664;DHT22;43493;53.098;6.064;2024-01-16T06:07:14;0.80;99.90
57664;DHT22;43493;53.098;6.064;2024-01-16T06:09:40;0.80;99.90
57664;DHT22;43493;53.098;6.064;2024-01-16T06:12:06;0.80;99.90
57664;DHT22;43493;53.098;6.064;2024-01-16T06:14:33;0.80;99.90
57664;DHT22;43493;53.098;6.064;2024-01-16T06:16:59;0.80;99.90
57664;DHT22;43493;53.098;6.064;2024-01-16T06:19:24;0.80;99.90
57664;DHT22;43493;53.098;6.064;2024-01-16T06:21:50;0.80;99.90
57664;DHT22;43493;53.098;6.064;2024-01-16T06:24:16;0.80;99.90
57664;DHT22;43493;53.098;6.064;2024-01-16T06:26:41;0.70;99.90
57664;DHT22;43493;53.098;6.064;2024-01-16T06:29:08;0.80;99.90
57664;DHT22;43493;53.098;6.064;2024-01-16T06:31:34;0.90;99.90
57664;DHT22;43493;53.098;6.064;2024-01-16T06:34:00;0.90;99.90
57664;DHT22;43493;53.098;6.064;2024-01-16T06:36:25;0.90;99.90
57664;DHT22;43493;53.098;6.064;2024-01-16T06:38:51;0.90;99.90
57664;DHT22;43493;53.098;6.064;2024-01-16T06:41:17;1.00;99.90
57664;DHT22;43493;53.098;6.064;2024-01-16T06:43:42;0.80;99.90
57664;DHT22;43493;53.098;6.064;2024-01-16T06:46:08;0.90;99.90
57664;DHT22;43493;53.098;6.064;2024-01-16T06:48:37;0.80;99.90
57664;DHT22;43493;53.098;6.064;2024-01-16T06:51:04;0.90;99.90
57664;DHT22;43493;53.098;6.064;2024-01-16T06:53:30;0.90;99.90
57664;DHT22;43493;53.098;6.064;2024-01-16T06:55:56;0.90;99.90
57664;DHT22;43493;53.098;6.064;2024-01-16T06:58:21;0.90;99.90
57664;DHT22;43493;53.098;6.064;2024-01-16T07:00:47;0.90;99.90
57664;DHT22;43493;53.098;6.064;2024-01-16T07:03:13;0.90;99.90
57664;DHT22;43493;53.098;6.064;2024-01-16T07:05:39;0.90;99.90
57664;DHT22;43493;53.098;6.064;2024-01-16T07:08:09;0.90;99.90
57664;DHT22;43493;53.098;6.064;2024-01-16T07:10:35;0.80;99.90
57664;DHT22;43493;53.098;6.064;2024-01-16T07:13:01;0.90;99.90
57664;DHT22;43493;53.098;6.064;2024-01-16T07:15:27;0.90;99.90
57664;DHT22;43493;53.098;6.064;2024-01-16T07:17:53;0.90;99.90
57664;DHT22;43493;53.098;6.064;2024-01-16T07:20:19;0.90;99.90
57664;DHT22;43493;53.098;6.064;2024-01-16T07:22:45;0.90;99.90
57664;DHT22;43493;53.098;6.064;2024-01-16T07:25:11;0.90;99.90
57664;DHT22;43493;53.098;6.064;2024-01-16T07:27:37;0.90;99.90
57664;DHT22;43493;53.098;6.064;2024-01-16T07:30:06;0.90;99.90
57664;DHT22;43493;53.098;6.064;2024-01-16T07:32:33;0.90;99.90
57664;DHT22;43493;53.098;6.064;2024-01-16T07:34:59;0.90;99.90
57664;DHT22;43493;53.098;6.064;2024-01-16T07:37:25;0.80;99.90
57664;DHT22;43493;53.098;6.064;2024-01-16T07:39:50;0.90;99.90
57664;DHT22;43493;53.098;6.064;2024-01-16T07:42:16;0.80;99.90
57664;DHT22;43493;53.098;6.064;2024-01-16T07:44:42;0.80;99.90
57664;DHT22;43493;53.098;6.064;2024-01-16T07:47:08;0.80;99.90
57664;DHT22;43493;53.098;6.064;2024-01-16T07:49:34;0.70;99.90
57664;DHT22;43493;53.098;6.064;2024-01-16T07:52:00;0.80;99.90
57664;DHT22;43493;53.098;6.064;2024-01-16T07:54:25;0.80;99.90
57664;DHT22;43493;53.098;6.064;2024-01-16T07:56:51;0.90;99.90
57664;DHT22;43493;53.098;6.064;2024-01-16T07:59:17;0.90;99.90
57664;DHT22;43493;53.098;6.064;2024-01-16T08:01:43;0.90;99.90
57664;DHT22;43493;53.098;6.064;2024-01-16T08:04:09;1.00;99.90
57664;DHT22;43493;53.098;6.064;2024-01-16T08:06:35;1.00;99.90
57664;DHT22;43493;53.098;6.064;2024-01-16T08:09:01;1.00;99.90
57664;DHT22;43493;53.098;6.064;2024-01-16T08:11:26;1.10;99.90
57664;DHT22;43493;53.098;6.064;2024-01-16T08:13:52;1.00;99.90
57664;DHT22;43493;53.098;6.064;2024-01-16T08:16:18;1.00;99.90
57664;DHT22;43493;53.098;6.064;2024-01-16T08:18:43;1.00;99.90
57664;DHT22;43493;53.098;6.064;2024-01-16T08:21:09;1.00;99.90
57664;DHT22;43493;53.098;6.064;2024-01-16T08:23:35;1.10;99.90
57664;DHT22;43493;53.098;6.064;2024-01-16T08:26:01;1.00;99.90
57664;DHT22;43493;53.098;6.064;2024-01-16T08:28:27;1.10;99.90
57664;DHT22;43493;53.098;6.064;2024-01-16T08:30:53;1.00;99.90
57664;DHT22;43493;53.098;6.064;2024-01-16T08:33:19;1.10;99.90
57664;DHT22;43493;53.098;6.064;2024-01-16T08:35:44;1.10;99.90
57664;DHT22;43493;53.098;6.064;2024-01-16T08:38:10;1.10;99.90
57664;DHT22;43493;53.098;6.064;2024-01-16T08:40:36;1.20;99.90
57664;DHT22;43493;53.098;6.064;2024-01-16T08:43:02;1.30;99.90
57664;DHT22;43493;53.098;6.064;2024-01-16T08:45:29;1.20;99.90
57664;DHT22;43493;53.098;6.064;2024-01-16T08:47:55;1.30;99.90
57664;DHT22;43493;53.098;6.064;2024-01-16T08:50:21;1.30;99.90
57664;DHT22;43493;53.098;6.064;2024-01-16T08:52:46;1.30;99.90
57664;DHT22;43493;53.098;6.064;2024-01-16T08:55:12;1.30;99.90
57664;DHT22;43493;53.098;6.064;2024-01-16T08:57:38;1.30;99.90
57664;DHT22;43493;53.098;6.064;2024-01-16T09:00:07;1.40;99.90
57664;DHT22;43493;53.098;6.064;2024-01-16T09:02:35;1.40;99.90
57664;DHT22;43493;53.098;6.064;2024-01-16T09:05:01;1.40;99.90
57664;DHT22;43493;53.098;6.064;2024-01-16T09:07:27;1.40;99.90
57664;DHT22;43493;53.098;6.064;2024-01-16T09:09:53;1.40;99.90
57664;DHT22;43493;53.098;6.064;2024-01-16T09:12:19;1.40;99.90
57664;DHT22;43493;53.098;6.064;2024-01-16T09:14:45;1.40;99.90
57664;DHT22;43493;53.098;6.064;2024-01-16T09:17:10;1.40;99.90
57664;DHT22;43493;53.098;6.064;2024-01-16T09:19:36;1.50;99.90
57664;DHT22;43493;53.098;6.064;2024-01-16T09:22:02;1.50;99.90
57664;DHT22;43493;53.098;6.064;2024-01-16T09:24:28;1.50;99.90
57664;DHT22;43493;53.098;6.064;2024-01-16T09:26:54;1.50;99.90
57664;DHT22;43493;53.098;6.064;2024-01-16T09:29:20;1.40;99.90
57664;DHT22;43493;53.098;6.064;2024-01-16T09:31:47;1.60;99.90
57664;DHT22;43493;53.098;6.064;2024-01-16T09:34:13;1.60;99.90
57664;DHT22;43493;53.098;6.064;2024-01-16T09:36:39;1.60;99.90
57664;DHT22;43493;53.098;6.064;2024-01-16T09:39:06;1.70;99.90
57664;DHT22;43493;53.098;6.064;2024-01-16T09:41:39;1.70;99.90
57664;DHT22;43493;53.098;6.064;2024-01-16T09:44:06;1.80;99.90
57664;DHT22;43493;53.098;6.064;2024-01-16T09:46:34;1.90;99.90
57664;DHT22;43493;53.098;6.064;2024-01-16T09:49:02;1.90;99.90
57664;DHT22;43493;53.098;6.064;2024-01-16T09:51:28;1.90;99.90
57664;DHT22;43493;53.098;6.064;2024-01-16T09:53:54;2.10;99.90
57664;DHT22;43493;53.098;6.064;2024-01-16T09:56:23;2.10;99.90
57664;DHT22;43493;53.098;6.064;2024-01-16T09:58:57;2.20;99.90
57664;DHT22;43493;53.098;6.064;2024-01-16T10:01:26;2.20;99.90
57664;DHT22;43493;53.098;6.064;2024-01-16T10:03:52;2.20;99.90
57664;DHT22;43493;53.098;6.064;2024-01-16T10:06:20;2.30;99.90
57664;DHT22;43493;53.098;6.064;2024-01-16T10:08:46;2.20;99.90
57664;DHT22;43493;53.098;6.064;2024-01-16T10:11:12;2.20;99.90
57664;DHT22;43493;53.098;6.064;2024-01-16T10:13:38;2.20;99.90
57664;DHT22;43493;53.098;6.064;2024-01-16T10:16:04;2.10;99.90
57664;DHT22;43493;53.098;6.064;2024-01-16T10:18:30;2.10;99.90
57664;DHT22;43493;53.098;6.064;2024-01-16T10:20:56;2.10;99.90
57664;DHT22;43493;53.098;6.064;2024-01-16T10:23:26;2.00;99.90
57664;DHT22;43493;53.098;6.064;2024-01-16T10:28:33;2.00;99.90
57664;DHT22;43493;53.098;6.064;2024-01-16T10:31:07;2.00;99.90
57664;DHT22;43493;53.098;6.064;2024-01-16T10:33:33;2.00;99.90
57664;DHT22;43493;53.098;6.064;2024-01-16T10:36:12;2.00;99.90
57664;DHT22;43493;53.098;6.064;2024-01-16T10:38:39;2.00;99.90
57664;DHT22;43493;53.098;6.064;2024-01-16T10:41:18;1.80;99.90
57664;DHT22;43493;53.098;6.064;2024-01-16T10:43:44;1.80;99.90
57664;DHT22;43493;53.098;6.064;2024-01-16T10:46:14;1.70;99.90
57664;DHT22;43493;53.098;6.064;2024-01-16T10:49:00;1.70;99.90
57664;DHT22;43493;53.098;6.064;2024-01-16T10:51:27;1.60;99.90
57664;DHT22;43493;53.098;6.064;2024-01-16T10:54:04;1.60;99.90
57664;DHT22;43493;53.098;6.064;2024-01-16T10:56:31;1.60;99.90
57664;DHT22;43493;53.098;6.064;2024-01-16T10:59:31;1.60;99.90
57664;DHT22;43493;53.098;6.064;2024-01-16T11:01:56;1.70;99.90
57664;DHT22;43493;53.098;6.064;2024-01-16T11:04:24;1.70;99.90
57664;DHT22;43493;53.098;6.064;2024-01-16T11:06:54;1.60;99.90
57664;DHT22;43493;53.098;6.064;2024-01-16T11:09:21;1.70;99.90
57664;DHT22;43493;53.098;6.064;2024-01-16T11:11:47;1.80;99.90
57664;DHT22;43493;53.098;6.064;2024-01-16T11:14:15;1.80;99.90
57664;DHT22;43493;53.098;6.064;2024-01-16T11:16:42;1.80;99.90
57664;DHT22;43493;53.098;6.064;2024-01-16T11:19:09;1.90;99.90
57664;DHT22;43493;53.098;6.064;2024-01-16T11:21:36;1.90;99.90
57664;DHT22;43493;53.098;6.064;2024-01-16T11:24:03;1.90;99.90
57664;DHT22;43493;53.098;6.064;2024-01-16T11:26:40;1.90;99.90
57664;DHT22;43493;53.098;6.064;2024-01-16T11:31:57;1.90;99.90
57664;DHT22;43493;53.098;6.064;2024-01-16T11:37:08;1.90;99.90
57664;DHT22;43493;53.098;6.064;2024-01-16T11:39:35;1.90;99.90
57664;DHT22;43493;53.098;6.064;2024-01-16T11:42:01;2.00;99.90
57664;DHT22;43493;53.098;6.064;2024-01-16T11:44:44;2.00;99.90
57664;DHT22;43493;53.098;6.064;2024-01-16T11:47:25;2.00;99.90
57664;DHT22;43493;53.098;6.064;2024-01-16T11:50:27;2.10;99.90
57664;DHT22;43493;53.098;6.064;2024-01-16T11:52:42;2.20;99.90
57664;DHT22;43493;53.098;6.064;2024-01-16T11:55:30;2.20;99.90
57664;DHT22;43493;53.098;6.064;2024-01-16T12:00:50;2.20;99.90
57664;DHT22;43493;53.098;6.064;2024-01-16T12:03:21;2.10;99.90
57664;DHT22;43493;53.098;6.064;2024-01-16T12:08:22;2.10;99.90
57664;DHT22;43493;53.098;6.064;2024-01-16T12:10:48;2.10;99.90
57664;DHT22;43493;53.098;6.064;2024-01-16T12:13:14;2.10;99.90
57664;DHT22;43493;53.098;6.064;2024-01-16T12:15:40;2.00;99.90
57664;DHT22;43493;53.098;6.064;2024-01-16T12:18:07;2.00;99.90
57664;DHT22;43493;53.098;6.064;2024-01-16T12:20:37;1.90;99.90
57664;DHT22;43493;53.098;6.064;2024-01-16T12:23:05;2.00;99.90
57664;DHT22;43493;53.098;6.064;2024-01-16T12:25:35;1.90;99.90
57664;DHT22;43493;53.098;6.064;2024-01-16T12:30:33;2.00;99.90
57664;DHT22;43493;53.098;6.064;2024-01-16T12:33:08;2.00;99.90
57664;DHT22;43493;53.098;6.064;2024-01-16T12:35:44;2.00;99.90
57664;DHT22;43493;53.098;6.064;2024-01-16T12:38:12;2.00;99.90
57664;DHT22;43493;53.098;6.064;2024-01-16T12:40:46;2.00;99.90
57664;DHT22;43493;53.098;6.064;2024-01-16T12:43:13;2.00;99.90
57664;DHT22;43493;53.098;6.064;2024-01-16T12:45:39;2.10;99.90
57664;DHT22;43493;53.098;6.064;2024-01-16T12:48:05;2.00;99.90
57664;DHT22;43493;53.098;6.064;2024-01-16T12:50:32;2.00;99.90
57664;DHT22;43493;53.098;6.064;2024-01-16T12:53:11;2.10;99.90
57664;DHT22;43493;53.098;6.064;2024-01-16T12:55:38;2.00;99.90
57664;DHT22;43493;53.098;6.064;2024-01-16T12:58:13;2.00;99.90
57664;DHT22;43493;53.098;6.064;2024-01-16T13:00:39;2.00;99.90
57664;DHT22;43493;53.098;6.064;2024-01-16T13:03:06;2.00;99.90
57664;DHT22;43493;53.098;6.064;2024-01-16T13:05:32;2.00;99.90
57664;DHT22;43493;53.098;6.064;2024-01-16T13:08:04;2.00;99.90
57664;DHT22;43493;53.098;6.064;2024-01-16T13:10:30;2.00;99.90
57664;DHT22;43493;53.098;6.064;2024-01-16T13:13:21;2.10;99.90
57664;DHT22;43493;53.098;6.064;2024-01-16T13:15:47;2.00;99.90
57664;DHT22;43493;53.098;6.064;2024-01-16T13:18:18;2.00;99.90
57664;DHT22;43493;53.098;6.064;2024-01-16T13:20:44;2.00;99.90
57664;DHT22;43493;53.098;6.064;2024-01-16T13:23:12;2.00;99.90
57664;DHT22;43493;53.098;6.064;2024-01-16T13:25:39;2.00;99.90
57664;DHT22;43493;53.098;6.064;2024-01-16T13:28:05;2.00;99.90
57664;DHT22;43493;53.098;6.064;2024-01-16T13:30:33;2.00;99.90
57664;DHT22;43493;53.098;6.064;2024-01-16T13:32:59;2.00;99.90
57664;DHT22;43493;53.098;6.064;2024-01-16T13:35:24;2.00;99.90
57664;DHT22;43493;53.098;6.064;2024-01-16T13:37:50;2.00;99.90
57664;DHT22;43493;53.098;6.064;2024-01-16T13:40:16;2.00;99.90
57664;DHT22;43493;53.098;6.064;2024-01-16T13:42:44;1.90;99.90
57664;DHT22;43493;53.098;6.064;2024-01-16T13:45:11;1.90;99.90
57664;DHT22;43493;53.098;6.064;2024-01-16T13:47:39;1.90;99.90
57664;DHT22;43493;53.098;6.064;2024-01-16T13:50:06;1.90;99.90
57664;DHT22;43493;53.098;6.064;2024-01-16T13:52:35;1.90;99.90
57664;DHT22;43493;53.098;6.064;2024-01-16T13:55:02;1.90;99.90
57664;DHT22;43493;53.098;6.064;2024-01-16T13:57:31;1.90;99.90
57664;DHT22;43493;53.098;6.064;2024-01-16T13:59:57;1.90;99.90
57664;DHT22;43493;53.098;6.064;2024-01-16T14:02:23;1.90;99.90
57664;DHT22;43493;53.098;6.064;2024-01-16T14:04:50;1.90;99.90
57664;DHT22;43493;53.098;6.064;2024-01-16T14:07:16;1.90;99.90
57664;DHT22;43493;53.098;6.064;2024-01-16T14:09:42;2.00;99.90
57664;DHT22;43493;53.098;6.064;2024-01-16T14:12:08;2.00;99.90
57664;DHT22;43493;53.098;6.064;2024-01-16T14:14:34;2.00;99.90
57664;DHT22;43493;53.098;6.064;2024-01-16T14:17:01;2.00;99.90
57664;DHT22;43493;53.098;6.064;2024-01-16T14:19:28;2.00;99.90
57664;DHT22;43493;53.098;6.064;2024-01-16T14:21:56;2.00;99.90
57664;DHT22;43493;53.098;6.064;2024-01-16T14:24:21;2.00;99.90
57664;DHT22;43493;53.098;6.064;2024-01-16T14:26:47;2.00;99.90
57664;DHT22;43493;53.098;6.064;2024-01-16T14:29:13;2.00;99.90
57664;DHT22;43493;53.098;6.064;2024-01-16T14:31:39;2.00;99.90
57664;DHT22;43493;53.098;6.064;2024-01-16T14:34:10;2.00;99.90
57664;DHT22;43493;53.098;6.064;2024-01-16T14:36:42;2.00;99.90
57664;DHT22;43493;53.098;6.064;2024-01-16T14:39:08;1.90;99.90
57664;DHT22;43493;53.098;6.064;2024-01-16T14:41:39;1.90;99.90
57664;DHT22;43493;53.098;6.064;2024-01-16T14:44:08;1.90;99.90
57664;DHT22;43493;53.098;6.064;2024-01-16T14:46:35;1.80;99.90
57664;DHT22;43493;53.098;6.064;2024-01-16T14:49:01;1.80;99.90
57664;DHT22;43493;53.098;6.064;2024-01-16T14:51:27;1.80;99.90
57664;DHT22;43493;53.098;6.064;2024-01-16T14:53:53;1.80;99.90
57664;DHT22;43493;53.098;6.064;2024-01-16T14:56:19;1.70;99.90
57664;DHT22;43493;53.098;6.064;2024-01-16T14:58:46;1.80;99.90
57664;DHT22;43493;53.098;6.064;2024-01-16T15:01:11;1.70;99.90
57664;DHT22;43493;53.098;6.064;2024-01-16T15:03:37;1.80;99.90
57664;DHT22;43493;53.098;6.064;2024-01-16T15:06:04;1.70;99.90
57664;DHT22;43493;53.098;6.064;2024-01-16T15:08:30;1.70;99.90
57664;DHT22;43493;53.098;6.064;2024-01-16T15:10:58;1.70;99.90
57664;DHT22;43493;53.098;6.064;2024-01-16T15:13:26;1.60;99.90
57664;DHT22;43493;53.098;6.064;2024-01-16T15:15:52;1.60;99.90
57664;DHT22;43493;53.098;6.064;2024-01-16T15:18:20;1.60;99.90
57664;DHT22;43493;53.098;6.064;2024-01-16T15:20:46;1.50;99.90
57664;DHT22;43493;53.098;6.064;2024-01-16T15:23:12;1.60;99.90
57664;DHT22;43493;53.098;6.064;2024-01-16T15:25:38;1.60;99.90
57664;DHT22;43493;53.098;6.064;2024-01-16T15:28:04;1.60;99.90
57664;DHT22;43493;53.098;6.064;2024-01-16T15:30:29;1.50;99.90
57664;DHT22;43493;53.098;6.064;2024-01-16T15:32:59;1.50;99.90
57664;DHT22;43493;53.098;6.064;2024-01-16T15:35:24;1.50;99.90
57664;DHT22;43493;53.098;6.064;2024-01-16T15:37:50;1.50;99.90
57664;DHT22;43493;53.098;6.064;2024-01-16T15:40:16;1.50;99.90
57664;DHT22;43493;53.098;6.064;2024-01-16T15:42:42;1.50;99.90
57664;DHT22;43493;53.098;6.064;2024-01-16T15:45:08;1.50;99.90
57664;DHT22;43493;53.098;6.064;2024-01-16T15:47:37;1.50;99.90
57664;DHT22;43493;53.098;6.064;2024-01-16T15:50:04;1.50;99.90
57664;DHT22;43493;53.098;6.064;2024-01-16T15:52:31;1.40;99.90
57664;DHT22;43493;53.098;6.064;2024-01-16T15:54:57;1.40;99.90
57664;DHT22;43493;53.098;6.064;2024-01-16T15:57:23;1.40;99.90
57664;DHT22;43493;53.098;6.064;2024-01-16T15:59:49;1.40;99.90